sensor_id;sensor_type;location;lat;lon;timestamp;P1;durP1;ratioP1;P2;durP2;ratioP2
1360;SDS011;674;45.552;-122.600;2023-04-25T00:01:57;2.10;;;0.60;;
1360;SDS011;674;45.552;-122.600;2023-04-25T00:04:27;1.60;;;0.50;;
1360;SDS011;674;45.552;-122.600;2023-04-25T00:06:57;1.47;;;0.37;;
1360;SDS011;674;45.552;-122.600;2023-04-25T00:09:28;1.90;;;0.40;;
1360;SDS011;674;45.552;-122.600;2023-04-25T00:11:57;1.93;;;0.63;;
1360;SDS011;674;45.552;-122.600;2023-04-25T00:14:25;1.73;;;0.47;;
1360;SDS011;674;45.552;-122.600;2023-04-25T00:16:54;1.40;;;0.40;;
1360;SDS011;674;45.552;-122.600;2023-04-25T00:19:23;1.87;;;0.70;;
1360;SDS011;674;45.552;-122.600;2023-04-25T00:21:52;1.70;;;0.90;;
1360;SDS011;674;45.552;-122.600;2023-04-25T00:24:20;1.90;;;0.80;;
1360;SDS011;674;45.552;-122.600;2023-04-25T00:26:49;3.50;;;1.20;;
1360;SDS011;674;45.552;-122.600;2023-04-25T00:29:17;4.07;;;1.10;;
1360;SDS011;674;45.552;-122.600;2023-04-25T00:31:46;2.60;;;1.30;;
1360;SDS011;674;45.552;-122.600;2023-04-25T00:34:14;2.17;;;1.20;;
1360;SDS011;674;45.552;-122.600;2023-04-25T00:36:43;1.73;;;0.80;;
1360;SDS011;674;45.552;-122.600;2023-04-25T00:39:12;2.50;;;0.93;;
1360;SDS011;674;45.552;-122.600;2023-04-25T00:41:41;2.10;;;1.00;;
1360;SDS011;674;45.552;-122.600;2023-04-25T00:44:09;2.10;;;0.97;;
1360;SDS011;674;45.552;-122.600;2023-04-25T00:46:39;2.77;;;1.27;;
1360;SDS011;674;45.552;-122.600;2023-04-25T00:49:07;2.87;;;1.40;;
1360;SDS011;674;45.552;-122.600;2023-04-25T00:51:41;3.10;;;1.20;;
1360;SDS011;674;45.552;-122.600;2023-04-25T00:54:14;2.30;;;0.77;;
1360;SDS011;674;45.552;-122.600;2023-04-25T00:56:44;2.20;;;0.87;;
1360;SDS011;674;45.552;-122.600;2023-04-25T00:59:13;1.60;;;0.60;;
1360;SDS011;674;45.552;-122.600;2023-04-25T01:01:42;2.70;;;0.63;;
1360;SDS011;674;45.552;-122.600;2023-04-25T01:04:12;2.43;;;0.70;;
1360;SDS011;674;45.552;-122.600;2023-04-25T01:06:41;2.90;;;0.80;;
1360;SDS011;674;45.552;-122.600;2023-04-25T01:09:10;2.50;;;0.83;;
1360;SDS011;674;45.552;-122.600;2023-04-25T01:11:39;1.70;;;0.80;;
1360;SDS011;674;45.552;-122.600;2023-04-25T01:14:07;2.23;;;0.63;;
1360;SDS011;674;45.552;-122.600;2023-04-25T01:16:36;1.90;;;0.87;;
1360;SDS011;674;45.552;-122.600;2023-04-25T01:19:09;6.00;;;1.00;;
1360;SDS011;674;45.552;-122.600;2023-04-25T01:21:40;2.37;;;0.80;;
1360;SDS011;674;45.552;-122.600;2023-04-25T01:24:09;2.67;;;0.80;;
1360;SDS011;674;45.552;-122.600;2023-04-25T01:26:39;1.47;;;0.53;;
1360;SDS011;674;45.552;-122.600;2023-04-25T01:29:11;3.13;;;0.67;;
1360;SDS011;674;45.552;-122.600;2023-04-25T01:31:40;1.90;;;0.70;;
1360;SDS011;674;45.552;-122.600;2023-04-25T01:34:09;3.40;;;0.83;;
1360;SDS011;674;45.552;-122.600;2023-04-25T01:36:38;3.10;;;0.80;;
1360;SDS011;674;45.552;-122.600;2023-04-25T01:39:07;2.27;;;0.80;;
1360;SDS011;674;45.552;-122.600;2023-04-25T01:41:36;2.63;;;0.80;;
1360;SDS011;674;45.552;-122.600;2023-04-25T01:44:08;1.70;;;0.50;;
1360;SDS011;674;45.552;-122.600;2023-04-25T01:46:36;2.63;;;0.70;;
1360;SDS011;674;45.552;-122.600;2023-04-25T01:49:05;2.10;;;0.80;;
1360;SDS011;674;45.552;-122.600;2023-04-25T01:51:33;2.93;;;0.80;;
1360;SDS011;674;45.552;-122.600;2023-04-25T01:54:02;2.43;;;0.70;;
1360;SDS011;674;45.552;-122.600;2023-04-25T01:56:32;4.10;;;1.00;;
1360;SDS011;674;45.552;-122.600;2023-04-25T01:59:00;2.13;;;0.67;;
1360;SDS011;674;45.552;-122.600;2023-04-25T02:01:29;1.70;;;0.60;;
1360;SDS011;674;45.552;-122.600;2023-04-25T02:03:57;1.80;;;0.93;;
1360;SDS011;674;45.552;-122.600;2023-04-25T02:06:26;4.70;;;1.20;;
1360;SDS011;674;45.552;-122.600;2023-04-25T02:08:55;2.27;;;0.70;;
1360;SDS011;674;45.552;-122.600;2023-04-25T02:11:23;1.97;;;0.70;;
1360;SDS011;674;45.552;-122.600;2023-04-25T02:13:52;1.90;;;0.80;;
1360;SDS011;674;45.552;-122.600;2023-04-25T02:16:20;2.40;;;1.10;;
1360;SDS011;674;45.552;-122.600;2023-04-25T02:18:49;2.03;;;1.00;;
1360;SDS011;674;45.552;-122.600;2023-04-25T02:21:20;2.20;;;1.03;;
1360;SDS011;674;45.552;-122.600;2023-04-25T02:23:48;2.20;;;0.93;;
1360;SDS011;674;45.552;-122.600;2023-04-25T02:26:19;2.77;;;0.80;;
1360;SDS011;674;45.552;-122.600;2023-04-25T02:28:48;2.63;;;0.80;;
1360;SDS011;674;45.552;-122.600;2023-04-25T02:31:17;2.73;;;0.73;;
1360;SDS011;674;45.552;-122.600;2023-04-25T02:33:45;1.93;;;0.70;;
1360;SDS011;674;45.552;-122.600;2023-04-25T02:36:15;2.10;;;0.90;;
1360;SDS011;674;45.552;-122.600;2023-04-25T02:38:43;1.90;;;1.00;;
1360;SDS011;674;45.552;-122.600;2023-04-25T02:41:12;2.90;;;1.10;;
1360;SDS011;674;45.552;-122.600;2023-04-25T02:43:40;2.10;;;0.87;;
1360;SDS011;674;45.552;-122.600;2023-04-25T02:46:08;2.20;;;0.73;;
1360;SDS011;674;45.552;-122.600;2023-04-25T02:48:37;2.20;;;1.00;;
1360;SDS011;674;45.552;-122.600;2023-04-25T02:51:05;2.23;;;0.90;;
1360;SDS011;674;45.552;-122.600;2023-04-25T02:53:34;2.33;;;0.63;;
1360;SDS011;674;45.552;-122.600;2023-04-25T02:56:03;2.47;;;0.93;;
1360;SDS011;674;45.552;-122.600;2023-04-25T02:58:31;2.97;;;1.17;;
1360;SDS011;674;45.552;-122.600;2023-04-25T03:01:00;3.37;;;1.07;;
1360;SDS011;674;45.552;-122.600;2023-04-25T03:03:28;2.80;;;1.30;;
1360;SDS011;674;45.552;-122.600;2023-04-25T03:05:57;4.53;;;1.73;;
1360;SDS011;674;45.552;-122.600;2023-04-25T03:08:25;4.40;;;1.23;;
1360;SDS011;674;45.552;-122.600;2023-04-25T03:10:59;2.73;;;1.30;;
1360;SDS011;674;45.552;-122.600;2023-04-25T03:13:28;4.13;;;1.37;;
1360;SDS011;674;45.552;-122.600;2023-04-25T03:15:57;3.37;;;1.60;;
1360;SDS011;674;45.552;-122.600;2023-04-25T03:18:25;2.87;;;1.30;;
1360;SDS011;674;45.552;-122.600;2023-04-25T03:20:54;3.47;;;1.13;;
1360;SDS011;674;45.552;-122.600;2023-04-25T03:23:22;4.90;;;1.37;;
1360;SDS011;674;45.552;-122.600;2023-04-25T03:25:51;2.77;;;1.73;;
1360;SDS011;674;45.552;-122.600;2023-04-25T03:28:19;2.50;;;1.30;;
1360;SDS011;674;45.552;-122.600;2023-04-25T03:30:48;2.83;;;1.57;;
1360;SDS011;674;45.552;-122.600;2023-04-25T03:33:16;4.47;;;2.00;;
1360;SDS011;674;45.552;-122.600;2023-04-25T03:35:44;3.20;;;1.77;;
1360;SDS011;674;45.552;-122.600;2023-04-25T03:38:13;2.40;;;1.00;;
1360;SDS011;674;45.552;-122.600;2023-04-25T03:40:41;2.60;;;1.07;;
1360;SDS011;674;45.552;-122.600;2023-04-25T03:43:10;2.00;;;0.90;;
1360;SDS011;674;45.552;-122.600;2023-04-25T03:45:39;4.10;;;0.90;;
1360;SDS011;674;45.552;-122.600;2023-04-25T03:48:07;3.33;;;1.00;;
1360;SDS011;674;45.552;-122.600;2023-04-25T03:50:36;2.40;;;0.80;;
1360;SDS011;674;45.552;-122.600;2023-04-25T03:53:04;3.03;;;1.20;;
1360;SDS011;674;45.552;-122.600;2023-04-25T03:55:33;2.63;;;0.80;;
1360;SDS011;674;45.552;-122.600;2023-04-25T03:58:01;3.50;;;1.20;;
1360;SDS011;674;45.552;-122.600;2023-04-25T04:00:29;3.67;;;1.27;;
1360;SDS011;674;45.552;-122.600;2023-04-25T04:02:58;4.00;;;0.70;;
1360;SDS011;674;45.552;-122.600;2023-04-25T04:05:27;2.60;;;0.80;;
1360;SDS011;674;45.552;-122.600;2023-04-25T04:07:55;3.93;;;0.90;;
1360;SDS011;674;45.552;-122.600;2023-04-25T04:10:24;1.70;;;0.77;;
1360;SDS011;674;45.552;-122.600;2023-04-25T04:12:53;3.47;;;1.20;;
1360;SDS011;674;45.552;-122.600;2023-04-25T04:15:21;3.93;;;0.90;;
1360;SDS011;674;45.552;-122.600;2023-04-25T04:17:50;3.03;;;0.97;;
1360;SDS011;674;45.552;-122.600;2023-04-25T04:20:18;2.77;;;0.97;;
1360;SDS011;674;45.552;-122.600;2023-04-25T04:22:47;4.90;;;0.97;;
1360;SDS011;674;45.552;-122.600;2023-04-25T04:25:16;3.20;;;0.63;;
1360;SDS011;674;45.552;-122.600;2023-04-25T04:27:45;3.00;;;0.93;;
1360;SDS011;674;45.552;-122.600;2023-04-25T04:30:14;4.03;;;0.87;;
1360;SDS011;674;45.552;-122.600;2023-04-25T04:32:43;3.97;;;1.20;;
1360;SDS011;674;45.552;-122.600;2023-04-25T04:35:14;2.90;;;1.03;;
1360;SDS011;674;45.552;-122.600;2023-04-25T04:37:42;3.08;;;0.85;;
1360;SDS011;674;45.552;-122.600;2023-04-25T04:40:13;2.10;;;0.90;;
1360;SDS011;674;45.552;-122.600;2023-04-25T04:42:45;3.03;;;0.80;;
1360;SDS011;674;45.552;-122.600;2023-04-25T04:45:14;1.70;;;0.70;;
1360;SDS011;674;45.552;-122.600;2023-04-25T04:47:43;3.20;;;1.10;;
1360;SDS011;674;45.552;-122.600;2023-04-25T04:50:12;4.10;;;1.20;;
1360;SDS011;674;45.552;-122.600;2023-04-25T04:52:42;5.57;;;0.80;;
1360;SDS011;674;45.552;-122.600;2023-04-25T04:55:10;2.10;;;0.80;;
1360;SDS011;674;45.552;-122.600;2023-04-25T04:57:39;2.13;;;0.97;;
1360;SDS011;674;45.552;-122.600;2023-04-25T05:00:07;2.60;;;1.17;;
1360;SDS011;674;45.552;-122.600;2023-04-25T05:02:38;3.87;;;1.00;;
1360;SDS011;674;45.552;-122.600;2023-04-25T05:05:07;3.60;;;1.10;;
1360;SDS011;674;45.552;-122.600;2023-04-25T05:07:36;2.47;;;0.90;;
1360;SDS011;674;45.552;-122.600;2023-04-25T05:10:06;2.10;;;1.00;;
1360;SDS011;674;45.552;-122.600;2023-04-25T05:12:35;2.50;;;1.07;;
1360;SDS011;674;45.552;-122.600;2023-04-25T05:15:03;3.07;;;0.80;;
1360;SDS011;674;45.552;-122.600;2023-04-25T05:17:32;2.83;;;1.07;;
1360;SDS011;674;45.552;-122.600;2023-04-25T05:20:01;6.90;;;1.17;;
1360;SDS011;674;45.552;-122.600;2023-04-25T05:22:29;2.97;;;0.90;;
1360;SDS011;674;45.552;-122.600;2023-04-25T05:24:58;4.90;;;1.53;;
1360;SDS011;674;45.552;-122.600;2023-04-25T05:27:26;3.20;;;1.00;;
1360;SDS011;674;45.552;-122.600;2023-04-25T05:29:55;2.93;;;0.97;;
1360;SDS011;674;45.552;-122.600;2023-04-25T05:32:23;4.17;;;1.00;;
1360;SDS011;674;45.552;-122.600;2023-04-25T05:34:52;2.40;;;0.87;;
1360;SDS011;674;45.552;-122.600;2023-04-25T05:37:20;2.77;;;1.00;;
1360;SDS011;674;45.552;-122.600;2023-04-25T05:39:49;3.00;;;0.87;;
1360;SDS011;674;45.552;-122.600;2023-04-25T05:42:17;2.30;;;0.90;;
1360;SDS011;674;45.552;-122.600;2023-04-25T05:44:46;2.43;;;0.83;;
1360;SDS011;674;45.552;-122.600;2023-04-25T05:47:14;3.20;;;1.10;;
1360;SDS011;674;45.552;-122.600;2023-04-25T05:49:43;2.40;;;0.87;;
1360;SDS011;674;45.552;-122.600;2023-04-25T05:52:11;4.10;;;1.20;;
1360;SDS011;674;45.552;-122.600;2023-04-25T05:54:39;4.90;;;1.10;;
1360;SDS011;674;45.552;-122.600;2023-04-25T05:57:08;1.80;;;0.73;;
1360;SDS011;674;45.552;-122.600;2023-04-25T05:59:45;2.23;;;0.70;;
1360;SDS011;674;45.552;-122.600;2023-04-25T06:02:13;2.40;;;1.00;;
1360;SDS011;674;45.552;-122.600;2023-04-25T06:04:42;3.00;;;0.90;;
1360;SDS011;674;45.552;-122.600;2023-04-25T06:07:11;2.70;;;0.93;;
1360;SDS011;674;45.552;-122.600;2023-04-25T06:09:40;2.80;;;1.07;;
1360;SDS011;674;45.552;-122.600;2023-04-25T06:12:08;3.40;;;1.20;;
1360;SDS011;674;45.552;-122.600;2023-04-25T06:14:37;3.43;;;1.40;;
1360;SDS011;674;45.552;-122.600;2023-04-25T06:17:05;2.73;;;1.00;;
1360;SDS011;674;45.552;-122.600;2023-04-25T06:19:35;2.57;;;1.50;;
1360;SDS011;674;45.552;-122.600;2023-04-25T06:22:04;2.67;;;0.90;;
1360;SDS011;674;45.552;-122.600;2023-04-25T06:24:34;1.90;;;0.90;;
1360;SDS011;674;45.552;-122.600;2023-04-25T06:27:03;2.37;;;1.30;;
1360;SDS011;674;45.552;-122.600;2023-04-25T06:29:31;2.40;;;1.00;;
1360;SDS011;674;45.552;-122.600;2023-04-25T06:31:59;2.50;;;1.00;;
1360;SDS011;674;45.552;-122.600;2023-04-25T06:34:28;2.10;;;0.90;;
1360;SDS011;674;45.552;-122.600;2023-04-25T06:36:57;2.70;;;0.90;;
1360;SDS011;674;45.552;-122.600;2023-04-25T06:39:25;2.70;;;1.20;;
1360;SDS011;674;45.552;-122.600;2023-04-25T06:41:54;2.30;;;1.10;;
1360;SDS011;674;45.552;-122.600;2023-04-25T06:44:22;2.43;;;1.03;;
1360;SDS011;674;45.552;-122.600;2023-04-25T06:46:53;2.13;;;1.10;;
1360;SDS011;674;45.552;-122.600;2023-04-25T06:49:21;3.77;;;0.90;;
1360;SDS011;674;45.552;-122.600;2023-04-25T06:51:50;2.20;;;1.20;;
1360;SDS011;674;45.552;-122.600;2023-04-25T06:54:18;3.10;;;1.03;;
1360;SDS011;674;45.552;-122.600;2023-04-25T06:56:47;3.20;;;0.87;;
1360;SDS011;674;45.552;-122.600;2023-04-25T06:59:16;2.53;;;1.10;;
1360;SDS011;674;45.552;-122.600;2023-04-25T07:01:44;2.27;;;0.90;;
1360;SDS011;674;45.552;-122.600;2023-04-25T07:04:13;2.90;;;1.30;;
1360;SDS011;674;45.552;-122.600;2023-04-25T07:06:43;3.17;;;1.30;;
1360;SDS011;674;45.552;-122.600;2023-04-25T07:09:12;2.50;;;1.40;;
1360;SDS011;674;45.552;-122.600;2023-04-25T07:11:41;5.80;;;1.13;;
1360;SDS011;674;45.552;-122.600;2023-04-25T07:14:09;3.10;;;1.10;;
1360;SDS011;674;45.552;-122.600;2023-04-25T07:16:37;4.20;;;1.30;;
1360;SDS011;674;45.552;-122.600;2023-04-25T07:19:06;2.53;;;0.90;;
1360;SDS011;674;45.552;-122.600;2023-04-25T07:21:34;3.20;;;1.27;;
1360;SDS011;674;45.552;-122.600;2023-04-25T07:24:04;3.80;;;1.37;;
1360;SDS011;674;45.552;-122.600;2023-04-25T07:26:33;3.40;;;1.20;;
1360;SDS011;674;45.552;-122.600;2023-04-25T07:29:01;2.87;;;1.40;;
1360;SDS011;674;45.552;-122.600;2023-04-25T07:31:30;4.50;;;1.43;;
1360;SDS011;674;45.552;-122.600;2023-04-25T07:33:59;2.90;;;2.00;;
1360;SDS011;674;45.552;-122.600;2023-04-25T07:36:27;4.03;;;1.80;;
1360;SDS011;674;45.552;-122.600;2023-04-25T07:38:56;4.13;;;1.90;;
1360;SDS011;674;45.552;-122.600;2023-04-25T07:41:24;5.73;;;1.63;;
1360;SDS011;674;45.552;-122.600;2023-04-25T07:43:53;3.40;;;1.70;;
1360;SDS011;674;45.552;-122.600;2023-04-25T07:46:21;4.60;;;1.73;;
1360;SDS011;674;45.552;-122.600;2023-04-25T07:48:50;5.60;;;1.70;;
1360;SDS011;674;45.552;-122.600;2023-04-25T07:51:19;4.00;;;1.63;;
1360;SDS011;674;45.552;-122.600;2023-04-25T07:53:49;5.43;;;1.40;;
1360;SDS011;674;45.552;-122.600;2023-04-25T07:56:17;4.13;;;1.67;;
1360;SDS011;674;45.552;-122.600;2023-04-25T07:58:46;3.30;;;1.40;;
1360;SDS011;674;45.552;-122.600;2023-04-25T08:01:15;2.97;;;1.47;;
1360;SDS011;674;45.552;-122.600;2023-04-25T08:03:44;2.93;;;1.20;;
1360;SDS011;674;45.552;-122.600;2023-04-25T08:06:12;4.30;;;1.90;;
1360;SDS011;674;45.552;-122.600;2023-04-25T08:08:41;5.73;;;1.50;;
1360;SDS011;674;45.552;-122.600;2023-04-25T08:11:09;2.30;;;1.10;;
1360;SDS011;674;45.552;-122.600;2023-04-25T08:13:38;3.33;;;1.60;;
1360;SDS011;674;45.552;-122.600;2023-04-25T08:16:06;3.97;;;1.63;;
1360;SDS011;674;45.552;-122.600;2023-04-25T08:18:35;2.53;;;1.40;;
1360;SDS011;674;45.552;-122.600;2023-04-25T08:21:03;4.30;;;1.67;;
1360;SDS011;674;45.552;-122.600;2023-04-25T08:23:32;4.93;;;1.63;;
1360;SDS011;674;45.552;-122.600;2023-04-25T08:26:00;2.63;;;1.40;;
1360;SDS011;674;45.552;-122.600;2023-04-25T08:28:30;5.70;;;1.60;;
1360;SDS011;674;45.552;-122.600;2023-04-25T08:30:58;5.97;;;1.67;;
1360;SDS011;674;45.552;-122.600;2023-04-25T08:33:27;3.07;;;1.43;;
1360;SDS011;674;45.552;-122.600;2023-04-25T08:35:55;2.97;;;1.23;;
1360;SDS011;674;45.552;-122.600;2023-04-25T08:38:24;3.40;;;1.10;;
1360;SDS011;674;45.552;-122.600;2023-04-25T08:40:53;3.27;;;1.60;;
1360;SDS011;674;45.552;-122.600;2023-04-25T08:43:22;3.07;;;1.27;;
1360;SDS011;674;45.552;-122.600;2023-04-25T08:45:53;2.50;;;1.23;;
1360;SDS011;674;45.552;-122.600;2023-04-25T08:48:22;2.80;;;1.30;;
1360;SDS011;674;45.552;-122.600;2023-04-25T08:50:55;3.00;;;1.67;;
1360;SDS011;674;45.552;-122.600;2023-04-25T08:53:27;3.80;;;1.50;;
1360;SDS011;674;45.552;-122.600;2023-04-25T08:55:57;3.70;;;1.97;;
1360;SDS011;674;45.552;-122.600;2023-04-25T08:58:29;3.70;;;1.80;;
1360;SDS011;674;45.552;-122.600;2023-04-25T09:00:59;3.73;;;2.00;;
1360;SDS011;674;45.552;-122.600;2023-04-25T09:03:28;2.63;;;1.57;;
1360;SDS011;674;45.552;-122.600;2023-04-25T09:05:57;5.50;;;2.13;;
1360;SDS011;674;45.552;-122.600;2023-04-25T09:08:26;3.23;;;1.80;;
1360;SDS011;674;45.552;-122.600;2023-04-25T09:10:54;4.73;;;1.93;;
1360;SDS011;674;45.552;-122.600;2023-04-25T09:13:26;10.30;;;2.37;;
1360;SDS011;674;45.552;-122.600;2023-04-25T09:15:56;5.63;;;1.97;;
1360;SDS011;674;45.552;-122.600;2023-04-25T09:18:26;2.90;;;1.50;;
1360;SDS011;674;45.552;-122.600;2023-04-25T09:20:58;3.03;;;1.63;;
1360;SDS011;674;45.552;-122.600;2023-04-25T09:23:44;3.47;;;1.53;;
1360;SDS011;674;45.552;-122.600;2023-04-25T09:26:15;2.73;;;1.83;;
1360;SDS011;674;45.552;-122.600;2023-04-25T09:28:45;6.13;;;1.50;;
1360;SDS011;674;45.552;-122.600;2023-04-25T09:31:21;4.03;;;1.90;;
1360;SDS011;674;45.552;-122.600;2023-04-25T09:34:02;4.43;;;1.70;;
1360;SDS011;674;45.552;-122.600;2023-04-25T09:36:31;6.00;;;2.40;;
1360;SDS011;674;45.552;-122.600;2023-04-25T09:39:02;3.97;;;1.70;;
1360;SDS011;674;45.552;-122.600;2023-04-25T09:41:42;4.67;;;1.93;;
1360;SDS011;674;45.552;-122.600;2023-04-25T09:44:12;2.83;;;2.00;;
1360;SDS011;674;45.552;-122.600;2023-04-25T09:46:40;5.80;;;2.20;;
1360;SDS011;674;45.552;-122.600;2023-04-25T09:49:09;4.43;;;1.90;;
1360;SDS011;674;45.552;-122.600;2023-04-25T09:51:38;4.53;;;1.80;;
1360;SDS011;674;45.552;-122.600;2023-04-25T09:54:06;4.30;;;1.70;;
1360;SDS011;674;45.552;-122.600;2023-04-25T09:56:36;3.03;;;2.10;;
1360;SDS011;674;45.552;-122.600;2023-04-25T09:59:05;5.60;;;1.93;;
1360;SDS011;674;45.552;-122.600;2023-04-25T10:01:34;3.20;;;1.77;;
1360;SDS011;674;45.552;-122.600;2023-04-25T10:04:07;3.60;;;1.60;;
1360;SDS011;674;45.552;-122.600;2023-04-25T10:06:43;4.23;;;2.00;;
1360;SDS011;674;45.552;-122.600;2023-04-25T10:09:13;6.03;;;2.17;;
1360;SDS011;674;45.552;-122.600;2023-04-25T10:11:42;3.83;;;1.47;;
1360;SDS011;674;45.552;-122.600;2023-04-25T10:14:14;2.80;;;1.60;;
1360;SDS011;674;45.552;-122.600;2023-04-25T10:16:43;2.53;;;1.70;;
1360;SDS011;674;45.552;-122.600;2023-04-25T10:19:13;3.80;;;1.53;;
1360;SDS011;674;45.552;-122.600;2023-04-25T10:21:44;2.73;;;1.60;;
1360;SDS011;674;45.552;-122.600;2023-04-25T10:24:18;3.47;;;1.70;;
1360;SDS011;674;45.552;-122.600;2023-04-25T10:26:48;4.80;;;1.53;;
1360;SDS011;674;45.552;-122.600;2023-04-25T10:29:26;3.23;;;1.60;;
1360;SDS011;674;45.552;-122.600;2023-04-25T10:31:55;5.53;;;1.90;;
1360;SDS011;674;45.552;-122.600;2023-04-25T10:34:25;3.80;;;1.63;;
1360;SDS011;674;45.552;-122.600;2023-04-25T10:37:09;3.30;;;1.90;;
1360;SDS011;674;45.552;-122.600;2023-04-25T10:39:41;4.27;;;2.10;;
1360;SDS011;674;45.552;-122.600;2023-04-25T10:42:10;3.60;;;1.67;;
1360;SDS011;674;45.552;-122.600;2023-04-25T10:44:39;3.23;;;1.63;;
1360;SDS011;674;45.552;-122.600;2023-04-25T10:47:34;3.63;;;1.83;;
1360;SDS011;674;45.552;-122.600;2023-04-25T10:50:04;3.80;;;2.20;;
1360;SDS011;674;45.552;-122.600;2023-04-25T10:52:36;4.00;;;1.90;;
1360;SDS011;674;45.552;-122.600;2023-04-25T10:55:07;3.83;;;1.87;;
1360;SDS011;674;45.552;-122.600;2023-04-25T11:00:12;3.73;;;2.40;;
1360;SDS011;674;45.552;-122.600;2023-04-25T11:05:34;3.80;;;2.00;;
1360;SDS011;674;45.552;-122.600;2023-04-25T11:08:26;3.27;;;1.57;;
1360;SDS011;674;45.552;-122.600;2023-04-25T11:11:10;4.50;;;2.00;;
1360;SDS011;674;45.552;-122.600;2023-04-25T11:13:38;3.00;;;1.23;;
1360;SDS011;674;45.552;-122.600;2023-04-25T11:16:07;2.27;;;1.20;;
1360;SDS011;674;45.552;-122.600;2023-04-25T11:18:42;4.13;;;1.70;;
1360;SDS011;674;45.552;-122.600;2023-04-25T11:21:11;2.77;;;1.60;;
1360;SDS011;674;45.552;-122.600;2023-04-25T11:23:40;4.50;;;1.30;;
1360;SDS011;674;45.552;-122.600;2023-04-25T11:26:12;2.40;;;1.40;;
1360;SDS011;674;45.552;-122.600;2023-04-25T11:28:44;3.23;;;1.57;;
1360;SDS011;674;45.552;-122.600;2023-04-25T11:31:14;3.43;;;1.50;;
1360;SDS011;674;45.552;-122.600;2023-04-25T11:33:42;4.30;;;2.03;;
1360;SDS011;674;45.552;-122.600;2023-04-25T11:36:12;4.50;;;1.50;;
1360;SDS011;674;45.552;-122.600;2023-04-25T11:38:41;2.40;;;1.23;;
1360;SDS011;674;45.552;-122.600;2023-04-25T11:41:09;3.20;;;1.40;;
1360;SDS011;674;45.552;-122.600;2023-04-25T11:43:38;2.90;;;1.50;;
1360;SDS011;674;45.552;-122.600;2023-04-25T11:46:09;4.90;;;1.50;;
1360;SDS011;674;45.552;-122.600;2023-04-25T11:48:39;2.63;;;1.10;;
1360;SDS011;674;45.552;-122.600;2023-04-25T11:51:11;2.93;;;1.50;;
1360;SDS011;674;45.552;-122.600;2023-04-25T11:53:41;2.87;;;1.33;;
1360;SDS011;674;45.552;-122.600;2023-04-25T11:56:11;2.60;;;1.50;;
1360;SDS011;674;45.552;-122.600;2023-04-25T11:58:56;3.30;;;1.20;;
1360;SDS011;674;45.552;-122.600;2023-04-25T12:01:31;3.73;;;1.33;;
1360;SDS011;674;45.552;-122.600;2023-04-25T12:04:21;2.63;;;1.67;;
1360;SDS011;674;45.552;-122.600;2023-04-25T12:06:52;2.90;;;1.23;;
1360;SDS011;674;45.552;-122.600;2023-04-25T12:09:29;4.33;;;1.80;;
1360;SDS011;674;45.552;-122.600;2023-04-25T12:12:00;3.20;;;1.60;;
1360;SDS011;674;45.552;-122.600;2023-04-25T12:14:33;3.87;;;1.87;;
1360;SDS011;674;45.552;-122.600;2023-04-25T12:17:03;2.87;;;1.33;;
1360;SDS011;674;45.552;-122.600;2023-04-25T12:19:35;2.70;;;1.13;;
1360;SDS011;674;45.552;-122.600;2023-04-25T12:22:21;3.50;;;1.67;;
1360;SDS011;674;45.552;-122.600;2023-04-25T12:24:51;2.30;;;1.03;;
1360;SDS011;674;45.552;-122.600;2023-04-25T12:27:21;2.70;;;1.07;;
1360;SDS011;674;45.552;-122.600;2023-04-25T12:29:53;4.63;;;1.50;;
1360;SDS011;674;45.552;-122.600;2023-04-25T12:32:23;2.30;;;1.20;;
1360;SDS011;674;45.552;-122.600;2023-04-25T12:34:52;4.03;;;1.37;;
1360;SDS011;674;45.552;-122.600;2023-04-25T12:37:20;4.30;;;1.80;;
1360;SDS011;674;45.552;-122.600;2023-04-25T12:39:49;3.13;;;1.60;;
1360;SDS011;674;45.552;-122.600;2023-04-25T12:42:18;2.57;;;1.70;;
1360;SDS011;674;45.552;-122.600;2023-04-25T12:44:46;5.63;;;1.43;;
1360;SDS011;674;45.552;-122.600;2023-04-25T12:47:15;2.63;;;1.70;;
1360;SDS011;674;45.552;-122.600;2023-04-25T12:49:43;3.70;;;1.53;;
1360;SDS011;674;45.552;-122.600;2023-04-25T12:52:12;4.10;;;1.70;;
1360;SDS011;674;45.552;-122.600;2023-04-25T12:54:40;3.83;;;1.23;;
1360;SDS011;674;45.552;-122.600;2023-04-25T12:57:09;4.60;;;2.57;;
1360;SDS011;674;45.552;-122.600;2023-04-25T12:59:38;5.37;;;2.20;;
1360;SDS011;674;45.552;-122.600;2023-04-25T13:02:07;5.37;;;1.90;;
1360;SDS011;674;45.552;-122.600;2023-04-25T13:04:35;5.60;;;2.27;;
1360;SDS011;674;45.552;-122.600;2023-04-25T13:07:04;6.03;;;2.47;;
1360;SDS011;674;45.552;-122.600;2023-04-25T13:09:32;5.80;;;2.90;;
1360;SDS011;674;45.552;-122.600;2023-04-25T13:12:01;6.23;;;2.87;;
1360;SDS011;674;45.552;-122.600;2023-04-25T13:14:29;5.77;;;3.00;;
1360;SDS011;674;45.552;-122.600;2023-04-25T13:16:58;5.20;;;2.80;;
1360;SDS011;674;45.552;-122.600;2023-04-25T13:19:26;12.80;;;8.30;;
1360;SDS011;674;45.552;-122.600;2023-04-25T13:21:55;9.60;;;5.87;;
1360;SDS011;674;45.552;-122.600;2023-04-25T13:24:23;8.80;;;6.60;;
1360;SDS011;674;45.552;-122.600;2023-04-25T13:26:52;8.70;;;6.43;;
1360;SDS011;674;45.552;-122.600;2023-04-25T13:29:21;11.60;;;7.47;;
1360;SDS011;674;45.552;-122.600;2023-04-25T13:31:52;14.20;;;8.80;;
1360;SDS011;674;45.552;-122.600;2023-04-25T13:34:21;11.83;;;7.40;;
1360;SDS011;674;45.552;-122.600;2023-04-25T13:36:49;10.90;;;8.10;;
1360;SDS011;674;45.552;-122.600;2023-04-25T13:39:18;13.30;;;8.87;;
1360;SDS011;674;45.552;-122.600;2023-04-25T13:41:47;12.43;;;8.40;;
1360;SDS011;674;45.552;-122.600;2023-04-25T13:44:15;9.07;;;6.60;;
1360;SDS011;674;45.552;-122.600;2023-04-25T13:46:43;11.10;;;6.77;;
1360;SDS011;674;45.552;-122.600;2023-04-25T13:49:13;8.63;;;6.47;;
1360;SDS011;674;45.552;-122.600;2023-04-25T13:51:42;7.67;;;5.30;;
1360;SDS011;674;45.552;-122.600;2023-04-25T13:54:11;8.17;;;5.10;;
1360;SDS011;674;45.552;-122.600;2023-04-25T13:56:39;7.50;;;4.57;;
1360;SDS011;674;45.552;-122.600;2023-04-25T13:59:09;5.80;;;4.10;;
1360;SDS011;674;45.552;-122.600;2023-04-25T14:01:38;5.50;;;3.80;;
1360;SDS011;674;45.552;-122.600;2023-04-25T14:04:07;5.03;;;3.67;;
1360;SDS011;674;45.552;-122.600;2023-04-25T14:06:36;4.70;;;2.90;;
1360;SDS011;674;45.552;-122.600;2023-04-25T14:09:04;3.80;;;3.23;;
1360;SDS011;674;45.552;-122.600;2023-04-25T14:11:34;5.10;;;3.60;;
1360;SDS011;674;45.552;-122.600;2023-04-25T14:14:02;7.20;;;4.40;;
1360;SDS011;674;45.552;-122.600;2023-04-25T14:16:31;6.30;;;3.93;;
1360;SDS011;674;45.552;-122.600;2023-04-25T14:19:00;8.93;;;4.67;;
1360;SDS011;674;45.552;-122.600;2023-04-25T14:21:28;9.37;;;6.27;;
1360;SDS011;674;45.552;-122.600;2023-04-25T14:23:59;8.80;;;6.00;;
1360;SDS011;674;45.552;-122.600;2023-04-25T14:26:28;8.03;;;5.53;;
1360;SDS011;674;45.552;-122.600;2023-04-25T14:28:57;6.33;;;4.77;;
1360;SDS011;674;45.552;-122.600;2023-04-25T14:31:25;7.17;;;5.60;;
1360;SDS011;674;45.552;-122.600;2023-04-25T14:33:54;8.00;;;5.60;;
1360;SDS011;674;45.552;-122.600;2023-04-25T14:36:25;8.57;;;5.53;;
1360;SDS011;674;45.552;-122.600;2023-04-25T14:38:55;6.70;;;4.87;;
1360;SDS011;674;45.552;-122.600;2023-04-25T14:41:24;7.37;;;4.90;;
1360;SDS011;674;45.552;-122.600;2023-04-25T14:43:53;7.57;;;5.60;;
1360;SDS011;674;45.552;-122.600;2023-04-25T14:46:22;8.77;;;6.20;;
1360;SDS011;674;45.552;-122.600;2023-04-25T14:48:51;8.30;;;6.00;;
1360;SDS011;674;45.552;-122.600;2023-04-25T14:51:20;9.07;;;6.67;;
1360;SDS011;674;45.552;-122.600;2023-04-25T14:53:48;7.10;;;5.20;;
1360;SDS011;674;45.552;-122.600;2023-04-25T14:56:18;7.07;;;5.40;;
1360;SDS011;674;45.552;-122.600;2023-04-25T14:58:47;7.90;;;5.20;;
1360;SDS011;674;45.552;-122.600;2023-04-25T15:01:15;6.23;;;5.40;;
1360;SDS011;674;45.552;-122.600;2023-04-25T15:03:44;7.73;;;4.80;;
1360;SDS011;674;45.552;-122.600;2023-04-25T15:06:12;6.67;;;4.80;;
1360;SDS011;674;45.552;-122.600;2023-04-25T15:08:41;7.83;;;4.73;;